Search for airport 
image banner adimage banner ad
image banner ad

ORBI - Baghdad International Airport

Located in Baghdad, Iraq

ICAO - ORBI, IATA - BGW

Data provided by Airmate  

General information

Coordinates: N33°15'45" E44°14'4"
Elevation is 114 feet MSL.
 
Rated:
View ratings: [VIEW]


View others Airports in Baghdad Governorate

Operational data

Open for public use
Current time UTC:
Current local time:
Weather
METAR: ORBI 130000Z VRB03KT CAVOK 30/13 Q0999
TAF: TAF ORBI 122200Z 1300/1324 29006KT CAVOK
View NOTAMs / SUP AIP / TFR affecting this airport [VIEW]
Communications frequencies: [VIEW]

Runways:

RWY identifierQFULength (ft)Width (ft)SurfaceLDA (ft)
15R150°10830148CON
33L330°10830148
15L150°13123197
33R330°13123197

Airport contact information

Address: Baghdad Iraq

Satellite view of ORBI